Time;durP1;ratioP1;P1;durP2;ratioP2;P2;SDS_P1;SDS_P2;PMS_P1;PMS_P2;Temp;Humidity;BMP_temperature;BMP_pressure;BME280_temperature;BME280_humidity;BME280_pressure;Samples;Min_cycle;Max_cycle;Signal;HPM_P1;HPM_P2
2022/10/28 05:17:00;;;;;;;41.38;16.55;;;;;;;;;;6280174;22;20061;-81
2022/10/28 07:54:52;;;;;;;28.23;15.27;;;;;;;;;;6311722;22;20056;-89
2022/10/28 17:21:55;;;;;;;6.40;3.92;;;;;;;;;;6360081;22;20037;-88
2022/10/28 17:44:37;;;;;;;9.25;5.10;;;;;;;;;;6325104;22;20216;-89
2022/10/28 17:47:30;;;;;;;6.78;4.88;;;;;;;;;;6359805;22;20015;-88
2022/10/28 18:25:17;;;;;;;8.60;7.00;;;;;;;;;;6334369;22;20057;-85
2022/10/28 18:27:49;;;;;;;15.10;7.13;;;;;;;;;;6309265;22;20007;-89
2022/10/28 20:31:24;;;;;;;11.30;7.63;;;;;;;;;;6278727;22;20109;-86
2022/10/28 21:29:37;;;;;;;16.73;9.13;;;;;;;;;;6363175;22;19995;-88
2022/10/28 21:32:29;;;;;;;13.98;9.75;;;;;;;;;;6363693;22;19998;-88
2022/10/28 21:35:21;;;;;;;17.90;10.05;;;;;;;;;;6340026;22;20005;-89
2022/10/28 21:38:32;;;;;;;15.15;9.43;;;;;;;;;;6347118;22;20102;-89
2022/10/28 21:41:05;;;;;;;17.05;9.93;;;;;;;;;;6314456;22;20021;-89
2022/10/28 21:46:06;;;;;;;16.80;10.00;;;;;;;;;;6332616;22;20021;-87
2022/10/28 21:54:28;;;;;;;22.92;10.52;;;;;;;;;;6311248;22;20068;-88
2022/10/28 21:56:53;;;;;;;16.83;10.18;;;;;;;;;;6281218;22;20370;-90
2022/10/28 22:09:02;;;;;;;18.80;10.15;;;;;;;;;;6335618;22;20015;-88
2022/10/28 22:20:18;;;;;;;17.45;10.57;;;;;;;;;;6363231;22;20032;-89
2022/10/28 22:23:09;;;;;;;14.43;9.55;;;;;;;;;;6372609;22;20030;-87
2022/10/28 22:31:37;;;;;;;15.95;10.27;;;;;;;;;;6361295;22;20052;-86
2022/10/28 22:36:59;;;;;;;17.98;10.35;;;;;;;;;;6343572;22;20007;-87
2022/10/28 22:39:24;;;;;;;;;;;;;;;;;;6309535;22;20070;-86
2022/10/28 22:41:50;;;;;;;18.58;10.50;;;;;;;;;;6361666;22;19917;-85
2022/10/28 22:44:16;;;;;;;17.05;10.05;;;;;;;;;;6307228;22;20025;-87
2022/10/28 22:46:41;;;;;;;;;;;;;;;;;;6309872;22;20033;-85
2022/10/28 22:49:07;;;;;;;16.98;10.38;;;;;;;;;;6307999;22;19924;-88
2022/10/28 22:51:32;;;;;;;;;;;;;;;;;;6285372;22;20014;-88
2022/10/28 22:53:58;;;;;;;17.80;11.00;;;;;;;;;;6312388;22;19914;-87
2022/10/28 22:56:24;;;;;;;20.77;10.40;;;;;;;;;;6282818;22;20161;-87
2022/10/28 22:58:49;;;;;;;;;;;;;;;;;;6310160;22;20006;-86
2022/10/28 23:01:16;;;;;;;19.25;10.65;;;;;;;;;;6310433;22;19907;-88
2022/10/28 23:03:42;;;;;;;18.73;11.00;;;;;;;;;;6284697;22;19998;-88
2022/10/28 23:06:08;;;;;;;15.98;10.77;;;;;;;;;;6311498;22;20006;-88
2022/10/28 23:08:33;;;;;;;;;;;;;;;;;;6286271;22;19997;-88
2022/10/28 23:11:00;;;;;;;21.58;11.80;;;;;;;;;;6335631;22;19919;-87
2022/10/28 23:13:26;;;;;;;;;;;;;;;;;;6284279;22;20003;-85
2022/10/28 23:15:53;;;;;;;18.02;11.55;;;;;;;;;;6337545;22;19913;-86
2022/10/28 23:18:19;;;;;;;24.25;12.15;;;;;;;;;;6337182;22;19999;-87
2022/10/28 23:20:45;;;;;;;;;;;;;;;;;;6310696;22;20010;-87
2022/10/28 23:23:11;;;;;;;21.42;12.45;;;;;;;;;;6338120;22;19913;-88
2022/10/28 23:25:38;;;;;;;21.92;12.68;;;;;;;;;;6313712;22;20398;-88
2022/10/28 23:28:04;;;;;;;23.15;13.30;;;;;;;;;;6314094;22;20026;-87
2022/10/28 23:30:33;;;;;;;22.98;13.65;;;;;;;;;;6313322;22;20074;-86
2022/10/28 23:32:59;;;;;;;24.05;13.48;;;;;;;;;;6308920;22;20014;-88
2022/10/28 23:35:24;;;;;;;;;;;;;;;;;;6284193;22;20011;-88
2022/10/28 23:37:50;;;;;;;22.88;13.45;;;;;;;;;;6309025;22;19910;-87
2022/10/28 23:40:15;;;;;;;;;;;;;;;;;;6308424;22;20007;-87
2022/10/28 23:42:48;;;;;;;23.90;14.63;;;;;;;;;;6334395;22;19907;-88
2022/10/28 23:45:15;;;;;;;23.17;14.25;;;;;;;;;;6335309;22;20025;-88
2022/10/28 23:47:40;;;;;;;27.33;14.85;;;;;;;;;;6310240;22;20023;-89
2022/10/28 23:50:09;;;;;;;26.58;16.00;;;;;;;;;;6336967;22;19999;-85
2022/10/28 23:52:35;;;;;;;27.52;15.80;;;;;;;;;;6308671;22;19998;-86
2022/10/28 23:55:01;;;;;;;28.75;15.23;;;;;;;;;;6284526;22;20437;-88
2022/10/28 23:57:26;;;;;;;;;;;;;;;;;;6309409;22;20011;-86
2022/10/28 23:59:52;;;;;;;25.17;13.70;;;;;;;;;;6333906;22;19910;-87
